Alberton, Montana
Current Conditions -  °F | °C
As of 6:53 PM on Thursday 18 Dec 2014 (Local Time) from KMSO Reporting Station
Overcast Overcast  
Wind Chill: 31°   Ceiling: 5500
Heat Index: 31°   Visibility: 10mi
Dew Point: 28°   Wind: 0mph
Humidity: 89%   Direction: NA
Pressure: 30.03"   Gusts: NA
Location:  47°N, 114.47°W
Report Text: KMSO 190153Z AUTO 00000KT 10SM BKN055 OVC070 M01/M02 A3003 RMK AO2 SNB09E29 SLP198 P0000 T10061022 TSNO
Loading
Personal Weather Stations






























Interactive Weather Map New forecast layout! Learn more

10-Day Weather Forecast

Advertisements
Track Severe Weather on mobile